aviador You're here:

KCLK Decoded Metar

CLINTON in OK, USA
Report Time2017-08-23 01:55:00
UTC Time2017-08-23 02:08:28
Flight Rules vfr VFR
Wind050° at 08 kt
W.Decomp.*RWY 35: 4.8 kt HW 6.4 kt RCW
RWY 13: 0.4 kt HW 8 kt LCW
W.Rank050° ranks 16
Current wind is below 050° avg. (8.4)
Visibility9999 m
Phenomena:N/A
Clouds:Scattered 090 Hf
Broken 110 Hf
Expected CloudBase > 1,600 ft AGL from Temp-Dew spread
Ceiling11,000 ft
Temp22°C (ISA +10)
Dew Point18°C (78% RH)
AAT21.9°C
QNH1019 hPa
Density Alt2,877 ft
Elevation1,614 ft
Report Wrong Elevation
Raw Report
KCLK 230155Z AUTO 05008KT 10SM SCT090 BKN110 22/18 A3008 RMK AO2
LTG DSNT N AND E=

Extra information for KCLK:More info

Metar Taf Metar & Taf Last 4 Metars F.Rules Stats Wind Profile Meteogram Temp Stats Airport Information Weather charts Add Link Nearby VenuesMetar ALERT Operation Metar Decoded Social comments

AIRNAV info for KCLK